sensor_id;sensor_type;location;lat;lon;timestamp;P1;durP1;ratioP1;P2;durP2;ratioP2
3333;SDS011;1679;50.392;8.008;2023-06-22T00:01:27;11.30;;;10.23;;
3333;SDS011;1679;50.392;8.008;2023-06-22T00:03:53;11.67;;;10.67;;
3333;SDS011;1679;50.392;8.008;2023-06-22T00:06:19;10.33;;;9.60;;
3333;SDS011;1679;50.392;8.008;2023-06-22T00:08:45;11.10;;;10.30;;
3333;SDS011;1679;50.392;8.008;2023-06-22T00:11:10;10.70;;;9.90;;
3333;SDS011;1679;50.392;8.008;2023-06-22T00:13:37;11.07;;;10.03;;
3333;SDS011;1679;50.392;8.008;2023-06-22T00:16:03;11.47;;;10.57;;
3333;SDS011;1679;50.392;8.008;2023-06-22T00:18:28;10.60;;;9.80;;
3333;SDS011;1679;50.392;8.008;2023-06-22T00:20:55;11.40;;;10.50;;
3333;SDS011;1679;50.392;8.008;2023-06-22T00:23:22;10.20;;;9.20;;
3333;SDS011;1679;50.392;8.008;2023-06-22T00:25:48;10.90;;;10.00;;
3333;SDS011;1679;50.392;8.008;2023-06-22T00:28:14;10.57;;;9.73;;
3333;SDS011;1679;50.392;8.008;2023-06-22T00:30:40;11.03;;;10.10;;
3333;SDS011;1679;50.392;8.008;2023-06-22T00:33:06;11.03;;;9.63;;
3333;SDS011;1679;50.392;8.008;2023-06-22T00:35:32;10.97;;;10.07;;
3333;SDS011;1679;50.392;8.008;2023-06-22T00:37:59;11.73;;;10.77;;
3333;SDS011;1679;50.392;8.008;2023-06-22T00:40:26;10.90;;;9.90;;
3333;SDS011;1679;50.392;8.008;2023-06-22T00:42:52;11.67;;;10.77;;
3333;SDS011;1679;50.392;8.008;2023-06-22T00:45:18;11.50;;;10.60;;
3333;SDS011;1679;50.392;8.008;2023-06-22T00:47:43;11.30;;;10.50;;
3333;SDS011;1679;50.392;8.008;2023-06-22T00:50:09;12.23;;;10.97;;
3333;SDS011;1679;50.392;8.008;2023-06-22T00:52:43;12.27;;;11.27;;
3333;SDS011;1679;50.392;8.008;2023-06-22T00:55:09;10.83;;;10.03;;
3333;SDS011;1679;50.392;8.008;2023-06-22T00:57:35;11.20;;;10.30;;
3333;SDS011;1679;50.392;8.008;2023-06-22T01:00:02;11.90;;;10.97;;
3333;SDS011;1679;50.392;8.008;2023-06-22T01:02:30;11.80;;;10.90;;
3333;SDS011;1679;50.392;8.008;2023-06-22T01:04:56;11.50;;;10.40;;
3333;SDS011;1679;50.392;8.008;2023-06-22T01:07:31;11.67;;;10.77;;
3333;SDS011;1679;50.392;8.008;2023-06-22T01:10:07;13.07;;;11.87;;
3333;SDS011;1679;50.392;8.008;2023-06-22T01:12:48;13.10;;;11.90;;
3333;SDS011;1679;50.392;8.008;2023-06-22T01:18:04;13.80;;;12.40;;
3333;SDS011;1679;50.392;8.008;2023-06-22T01:20:34;14.43;;;13.23;;
3333;SDS011;1679;50.392;8.008;2023-06-22T01:28:49;13.13;;;11.93;;
3333;SDS011;1679;50.392;8.008;2023-06-22T01:31:18;12.63;;;11.73;;
3333;SDS011;1679;50.392;8.008;2023-06-22T01:33:48;14.20;;;12.87;;
3333;SDS011;1679;50.392;8.008;2023-06-22T01:36:22;12.70;;;11.60;;
3333;SDS011;1679;50.392;8.008;2023-06-22T01:38:49;13.73;;;12.60;;
3333;SDS011;1679;50.392;8.008;2023-06-22T01:41:16;14.60;;;13.30;;
3333;SDS011;1679;50.392;8.008;2023-06-22T01:43:42;15.03;;;13.63;;
3333;SDS011;1679;50.392;8.008;2023-06-22T01:46:08;14.47;;;13.30;;
3333;SDS011;1679;50.392;8.008;2023-06-22T01:48:35;14.30;;;13.10;;
3333;SDS011;1679;50.392;8.008;2023-06-22T01:51:00;14.80;;;13.47;;
3333;SDS011;1679;50.392;8.008;2023-06-22T01:53:27;15.00;;;13.60;;
3333;SDS011;1679;50.392;8.008;2023-06-22T01:55:53;14.40;;;13.20;;
3333;SDS011;1679;50.392;8.008;2023-06-22T01:58:18;14.00;;;12.67;;
3333;SDS011;1679;50.392;8.008;2023-06-22T02:00:48;14.53;;;13.33;;
3333;SDS011;1679;50.392;8.008;2023-06-22T02:03:19;14.07;;;12.87;;
3333;SDS011;1679;50.392;8.008;2023-06-22T02:05:49;14.30;;;13.20;;
3333;SDS011;1679;50.392;8.008;2023-06-22T02:08:21;14.93;;;13.43;;
3333;SDS011;1679;50.392;8.008;2023-06-22T02:10:50;15.47;;;13.87;;
3333;SDS011;1679;50.392;8.008;2023-06-22T02:13:18;16.83;;;15.27;;
3333;SDS011;1679;50.392;8.008;2023-06-22T02:15:44;16.70;;;15.20;;
3333;SDS011;1679;50.392;8.008;2023-06-22T02:18:10;16.20;;;14.57;;
3333;SDS011;1679;50.392;8.008;2023-06-22T02:20:37;15.87;;;14.40;;
3333;SDS011;1679;50.392;8.008;2023-06-22T02:23:04;15.03;;;13.70;;
3333;SDS011;1679;50.392;8.008;2023-06-22T02:25:31;16.27;;;14.80;;
3333;SDS011;1679;50.392;8.008;2023-06-22T02:27:57;15.60;;;14.20;;
3333;SDS011;1679;50.392;8.008;2023-06-22T02:30:22;15.17;;;13.67;;
3333;SDS011;1679;50.392;8.008;2023-06-22T02:32:48;16.37;;;14.87;;
3333;SDS011;1679;50.392;8.008;2023-06-22T02:35:13;16.27;;;14.67;;
3333;SDS011;1679;50.392;8.008;2023-06-22T02:37:39;14.40;;;13.20;;
3333;SDS011;1679;50.392;8.008;2023-06-22T02:40:07;14.23;;;13.07;;
3333;SDS011;1679;50.392;8.008;2023-06-22T02:42:36;15.30;;;14.00;;
3333;SDS011;1679;50.392;8.008;2023-06-22T02:45:02;14.87;;;13.20;;
3333;SDS011;1679;50.392;8.008;2023-06-22T02:47:28;15.60;;;13.90;;
3333;SDS011;1679;50.392;8.008;2023-06-22T02:49:54;14.73;;;13.50;;
3333;SDS011;1679;50.392;8.008;2023-06-22T02:52:19;16.63;;;15.13;;
3333;SDS011;1679;50.392;8.008;2023-06-22T02:54:45;15.80;;;14.50;;
3333;SDS011;1679;50.392;8.008;2023-06-22T02:57:11;17.77;;;15.97;;
3333;SDS011;1679;50.392;8.008;2023-06-22T02:59:38;16.77;;;15.17;;
3333;SDS011;1679;50.392;8.008;2023-06-22T03:02:06;15.30;;;14.00;;
3333;SDS011;1679;50.392;8.008;2023-06-22T03:04:33;17.73;;;15.17;;
3333;SDS011;1679;50.392;8.008;2023-06-22T03:06:59;15.33;;;13.97;;
3333;SDS011;1679;50.392;8.008;2023-06-22T03:09:26;16.97;;;15.33;;
3333;SDS011;1679;50.392;8.008;2023-06-22T03:11:52;15.77;;;14.50;;
3333;SDS011;1679;50.392;8.008;2023-06-22T03:14:20;17.20;;;15.70;;
3333;SDS011;1679;50.392;8.008;2023-06-22T03:16:46;16.40;;;14.93;;
3333;SDS011;1679;50.392;8.008;2023-06-22T03:19:11;17.20;;;15.60;;
3333;SDS011;1679;50.392;8.008;2023-06-22T03:21:37;16.77;;;15.20;;
3333;SDS011;1679;50.392;8.008;2023-06-22T03:24:06;16.63;;;14.87;;
3333;SDS011;1679;50.392;8.008;2023-06-22T03:26:32;16.63;;;14.70;;
3333;SDS011;1679;50.392;8.008;2023-06-22T03:28:59;15.43;;;14.03;;
3333;SDS011;1679;50.392;8.008;2023-06-22T03:31:25;16.10;;;14.70;;
3333;SDS011;1679;50.392;8.008;2023-06-22T03:33:51;16.90;;;15.10;;
3333;SDS011;1679;50.392;8.008;2023-06-22T03:36:17;16.40;;;14.90;;
3333;SDS011;1679;50.392;8.008;2023-06-22T03:38:46;14.90;;;13.43;;
3333;SDS011;1679;50.392;8.008;2023-06-22T03:41:13;14.93;;;13.57;;
3333;SDS011;1679;50.392;8.008;2023-06-22T03:43:38;14.87;;;13.77;;
3333;SDS011;1679;50.392;8.008;2023-06-22T03:46:04;16.47;;;15.17;;
3333;SDS011;1679;50.392;8.008;2023-06-22T03:48:30;15.53;;;14.10;;
3333;SDS011;1679;50.392;8.008;2023-06-22T03:50:56;18.67;;;15.20;;
3333;SDS011;1679;50.392;8.008;2023-06-22T03:53:24;15.50;;;14.23;;
3333;SDS011;1679;50.392;8.008;2023-06-22T03:55:50;15.80;;;14.40;;
3333;SDS011;1679;50.392;8.008;2023-06-22T03:58:17;16.03;;;14.63;;
3333;SDS011;1679;50.392;8.008;2023-06-22T04:00:49;16.60;;;15.23;;
3333;SDS011;1679;50.392;8.008;2023-06-22T04:03:17;16.23;;;14.73;;
3333;SDS011;1679;50.392;8.008;2023-06-22T04:05:46;17.37;;;15.80;;
3333;SDS011;1679;50.392;8.008;2023-06-22T04:08:13;17.10;;;15.60;;
3333;SDS011;1679;50.392;8.008;2023-06-22T04:10:39;17.40;;;16.00;;
3333;SDS011;1679;50.392;8.008;2023-06-22T04:13:04;17.13;;;15.73;;
3333;SDS011;1679;50.392;8.008;2023-06-22T04:15:30;16.83;;;15.37;;
3333;SDS011;1679;50.392;8.008;2023-06-22T04:17:56;16.97;;;15.57;;
3333;SDS011;1679;50.392;8.008;2023-06-22T04:20:22;16.27;;;14.87;;
3333;SDS011;1679;50.392;8.008;2023-06-22T04:22:47;15.90;;;14.67;;
3333;SDS011;1679;50.392;8.008;2023-06-22T04:25:13;16.50;;;15.00;;
3333;SDS011;1679;50.392;8.008;2023-06-22T04:27:39;16.23;;;14.63;;
3333;SDS011;1679;50.392;8.008;2023-06-22T04:30:07;15.87;;;14.57;;
3333;SDS011;1679;50.392;8.008;2023-06-22T04:32:33;17.00;;;15.50;;
3333;SDS011;1679;50.392;8.008;2023-06-22T04:35:01;16.17;;;14.83;;
3333;SDS011;1679;50.392;8.008;2023-06-22T04:37:29;16.70;;;15.20;;
3333;SDS011;1679;50.392;8.008;2023-06-22T04:39:55;17.13;;;15.63;;
3333;SDS011;1679;50.392;8.008;2023-06-22T04:42:20;17.33;;;15.63;;
3333;SDS011;1679;50.392;8.008;2023-06-22T04:44:46;15.03;;;13.77;;
3333;SDS011;1679;50.392;8.008;2023-06-22T04:47:11;15.97;;;14.57;;
3333;SDS011;1679;50.392;8.008;2023-06-22T04:49:38;15.40;;;14.10;;
3333;SDS011;1679;50.392;8.008;2023-06-22T04:52:07;16.27;;;14.77;;
3333;SDS011;1679;50.392;8.008;2023-06-22T04:54:34;17.67;;;16.07;;
3333;SDS011;1679;50.392;8.008;2023-06-22T04:57:01;16.80;;;15.30;;
3333;SDS011;1679;50.392;8.008;2023-06-22T04:59:28;16.73;;;15.23;;
3333;SDS011;1679;50.392;8.008;2023-06-22T05:01:55;15.60;;;14.40;;
3333;SDS011;1679;50.392;8.008;2023-06-22T05:04:23;16.93;;;15.43;;
3333;SDS011;1679;50.392;8.008;2023-06-22T05:06:53;16.77;;;15.37;;
3333;SDS011;1679;50.392;8.008;2023-06-22T05:09:19;16.30;;;14.90;;
3333;SDS011;1679;50.392;8.008;2023-06-22T05:11:45;17.97;;;16.30;;
3333;SDS011;1679;50.392;8.008;2023-06-22T05:14:11;16.90;;;15.50;;
3333;SDS011;1679;50.392;8.008;2023-06-22T05:16:37;17.00;;;15.50;;
3333;SDS011;1679;50.392;8.008;2023-06-22T05:19:03;18.00;;;16.50;;
3333;SDS011;1679;50.392;8.008;2023-06-22T05:21:29;16.77;;;15.37;;
3333;SDS011;1679;50.392;8.008;2023-06-22T05:23:56;16.90;;;15.50;;
3333;SDS011;1679;50.392;8.008;2023-06-22T05:26:25;17.27;;;15.77;;
3333;SDS011;1679;50.392;8.008;2023-06-22T05:28:51;17.73;;;15.87;;
3333;SDS011;1679;50.392;8.008;2023-06-22T05:31:17;15.70;;;14.50;;
3333;SDS011;1679;50.392;8.008;2023-06-22T05:33:47;18.90;;;16.53;;
3333;SDS011;1679;50.392;8.008;2023-06-22T05:36:13;17.60;;;16.03;;
3333;SDS011;1679;50.392;8.008;2023-06-22T05:38:59;19.13;;;17.53;;
3333;SDS011;1679;50.392;8.008;2023-06-22T05:41:36;18.30;;;16.70;;
3333;SDS011;1679;50.392;8.008;2023-06-22T05:44:01;18.73;;;16.93;;
3333;SDS011;1679;50.392;8.008;2023-06-22T05:46:27;17.10;;;15.50;;
3333;SDS011;1679;50.392;8.008;2023-06-22T05:48:52;19.40;;;15.53;;
3333;SDS011;1679;50.392;8.008;2023-06-22T05:51:19;16.80;;;15.17;;
3333;SDS011;1679;50.392;8.008;2023-06-22T05:53:44;17.63;;;15.23;;
3333;SDS011;1679;50.392;8.008;2023-06-22T05:56:14;15.07;;;13.97;;
3333;SDS011;1679;50.392;8.008;2023-06-22T05:58:40;15.33;;;13.87;;
3333;SDS011;1679;50.392;8.008;2023-06-22T06:01:05;16.57;;;15.00;;
3333;SDS011;1679;50.392;8.008;2023-06-22T06:03:31;16.80;;;15.20;;
3333;SDS011;1679;50.392;8.008;2023-06-22T06:05:56;16.33;;;14.93;;
3333;SDS011;1679;50.392;8.008;2023-06-22T06:08:22;15.27;;;13.97;;
3333;SDS011;1679;50.392;8.008;2023-06-22T06:10:47;15.60;;;14.07;;
3333;SDS011;1679;50.392;8.008;2023-06-22T06:13:13;16.23;;;14.90;;
3333;SDS011;1679;50.392;8.008;2023-06-22T06:15:39;16.67;;;15.17;;
3333;SDS011;1679;50.392;8.008;2023-06-22T06:18:04;16.73;;;15.10;;
3333;SDS011;1679;50.392;8.008;2023-06-22T06:20:31;14.87;;;13.50;;
3333;SDS011;1679;50.392;8.008;2023-06-22T06:22:57;15.30;;;13.87;;
3333;SDS011;1679;50.392;8.008;2023-06-22T06:25:23;15.67;;;14.17;;
3333;SDS011;1679;50.392;8.008;2023-06-22T06:27:49;15.17;;;13.77;;
3333;SDS011;1679;50.392;8.008;2023-06-22T06:30:16;14.90;;;13.60;;
3333;SDS011;1679;50.392;8.008;2023-06-22T06:32:44;14.77;;;13.57;;
3333;SDS011;1679;50.392;8.008;2023-06-22T06:35:11;13.87;;;12.67;;
3333;SDS011;1679;50.392;8.008;2023-06-22T06:37:38;14.77;;;13.57;;
3333;SDS011;1679;50.392;8.008;2023-06-22T06:40:06;14.20;;;13.00;;
3333;SDS011;1679;50.392;8.008;2023-06-22T06:42:39;15.57;;;14.20;;
3333;SDS011;1679;50.392;8.008;2023-06-22T06:45:10;14.70;;;13.40;;
3333;SDS011;1679;50.392;8.008;2023-06-22T06:47:42;20.27;;;14.00;;
3333;SDS011;1679;50.392;8.008;2023-06-22T06:50:08;21.20;;;13.57;;
3333;SDS011;1679;50.392;8.008;2023-06-22T06:52:34;14.33;;;13.13;;
3333;SDS011;1679;50.392;8.008;2023-06-22T06:55:00;15.03;;;13.63;;
3333;SDS011;1679;50.392;8.008;2023-06-22T06:57:29;15.83;;;13.23;;
3333;SDS011;1679;50.392;8.008;2023-06-22T06:59:55;13.90;;;12.90;;
3333;SDS011;1679;50.392;8.008;2023-06-22T07:02:21;13.70;;;12.63;;
3333;SDS011;1679;50.392;8.008;2023-06-22T07:04:47;13.27;;;12.27;;
3333;SDS011;1679;50.392;8.008;2023-06-22T07:07:13;15.60;;;13.90;;
3333;SDS011;1679;50.392;8.008;2023-06-22T07:09:39;14.40;;;13.30;;
3333;SDS011;1679;50.392;8.008;2023-06-22T07:12:05;13.00;;;12.00;;
3333;SDS011;1679;50.392;8.008;2023-06-22T07:14:31;13.63;;;12.60;;
3333;SDS011;1679;50.392;8.008;2023-06-22T07:16:57;15.90;;;14.50;;
3333;SDS011;1679;50.392;8.008;2023-06-22T07:19:26;15.03;;;13.77;;
3333;SDS011;1679;50.392;8.008;2023-06-22T07:21:52;15.00;;;13.60;;
3333;SDS011;1679;50.392;8.008;2023-06-22T07:24:18;17.90;;;13.50;;
3333;SDS011;1679;50.392;8.008;2023-06-22T07:26:49;14.10;;;12.90;;
3333;SDS011;1679;50.392;8.008;2023-06-22T07:29:19;15.20;;;13.90;;
3333;SDS011;1679;50.392;8.008;2023-06-22T07:31:46;14.43;;;13.10;;
3333;SDS011;1679;50.392;8.008;2023-06-22T07:34:12;22.60;;;13.97;;
3333;SDS011;1679;50.392;8.008;2023-06-22T07:36:38;14.57;;;13.47;;
3333;SDS011;1679;50.392;8.008;2023-06-22T07:39:04;13.93;;;12.83;;
3333;SDS011;1679;50.392;8.008;2023-06-22T07:41:30;13.37;;;12.10;;
3333;SDS011;1679;50.392;8.008;2023-06-22T07:43:56;14.63;;;13.33;;
3333;SDS011;1679;50.392;8.008;2023-06-22T07:46:21;13.63;;;12.30;;
3333;SDS011;1679;50.392;8.008;2023-06-22T07:48:47;13.77;;;12.60;;
3333;SDS011;1679;50.392;8.008;2023-06-22T07:51:13;13.60;;;12.40;;
3333;SDS011;1679;50.392;8.008;2023-06-22T07:53:40;13.30;;;12.10;;
3333;SDS011;1679;50.392;8.008;2023-06-22T07:56:06;13.13;;;11.63;;
3333;SDS011;1679;50.392;8.008;2023-06-22T07:58:32;15.33;;;13.20;;
3333;SDS011;1679;50.392;8.008;2023-06-22T08:00:58;15.17;;;11.67;;
3333;SDS011;1679;50.392;8.008;2023-06-22T08:03:24;13.03;;;11.73;;
3333;SDS011;1679;50.392;8.008;2023-06-22T08:05:49;12.60;;;11.60;;
3333;SDS011;1679;50.392;8.008;2023-06-22T08:08:15;14.67;;;12.07;;
3333;SDS011;1679;50.392;8.008;2023-06-22T08:10:41;12.20;;;11.13;;
3333;SDS011;1679;50.392;8.008;2023-06-22T08:13:07;11.83;;;10.93;;
3333;SDS011;1679;50.392;8.008;2023-06-22T08:15:33;13.00;;;11.93;;
3333;SDS011;1679;50.392;8.008;2023-06-22T08:17:58;16.10;;;12.20;;
3333;SDS011;1679;50.392;8.008;2023-06-22T08:20:25;11.83;;;10.83;;
3333;SDS011;1679;50.392;8.008;2023-06-22T08:22:52;12.25;;;11.25;;
3333;SDS011;1679;50.392;8.008;2023-06-22T08:25:19;13.65;;;12.60;;
3333;SDS011;1679;50.392;8.008;2023-06-22T08:27:46;12.93;;;11.82;;
3333;SDS011;1679;50.392;8.008;2023-06-22T08:30:13;13.38;;;11.75;;
3333;SDS011;1679;50.392;8.008;2023-06-22T08:32:42;14.60;;;12.60;;
3333;SDS011;1679;50.392;8.008;2023-06-22T08:35:07;13.77;;;12.60;;
3333;SDS011;1679;50.392;8.008;2023-06-22T08:37:34;12.33;;;11.33;;
3333;SDS011;1679;50.392;8.008;2023-06-22T08:40:01;12.93;;;12.03;;
3333;SDS011;1679;50.392;8.008;2023-06-22T08:42:32;12.77;;;11.70;;
3333;SDS011;1679;50.392;8.008;2023-06-22T08:44:58;11.80;;;10.80;;
3333;SDS011;1679;50.392;8.008;2023-06-22T08:47:24;12.50;;;11.60;;
3333;SDS011;1679;50.392;8.008;2023-06-22T08:49:49;12.80;;;11.90;;
3333;SDS011;1679;50.392;8.008;2023-06-22T08:52:17;14.80;;;13.30;;
3333;SDS011;1679;50.392;8.008;2023-06-22T08:54:43;12.77;;;11.77;;
3333;SDS011;1679;50.392;8.008;2023-06-22T08:57:09;13.53;;;12.40;;
3333;SDS011;1679;50.392;8.008;2023-06-22T08:59:35;12.57;;;11.43;;
3333;SDS011;1679;50.392;8.008;2023-06-22T09:02:00;13.50;;;11.13;;
3333;SDS011;1679;50.392;8.008;2023-06-22T09:04:25;14.03;;;12.60;;
3333;SDS011;1679;50.392;8.008;2023-06-22T09:06:51;12.80;;;11.73;;
3333;SDS011;1679;50.392;8.008;2023-06-22T09:09:17;12.83;;;11.60;;
3333;SDS011;1679;50.392;8.008;2023-06-22T09:11:43;12.43;;;11.53;;
3333;SDS011;1679;50.392;8.008;2023-06-22T09:14:09;12.15;;;11.05;;
3333;SDS011;1679;50.392;8.008;2023-06-22T09:16:35;12.43;;;11.43;;
3333;SDS011;1679;50.392;8.008;2023-06-22T09:19:01;12.80;;;11.70;;
3333;SDS011;1679;50.392;8.008;2023-06-22T09:21:26;13.27;;;12.38;;
3333;SDS011;1679;50.392;8.008;2023-06-22T09:23:52;12.80;;;11.82;;
3333;SDS011;1679;50.392;8.008;2023-06-22T09:26:18;11.98;;;11.13;;
3333;SDS011;1679;50.392;8.008;2023-06-22T09:28:44;12.38;;;11.48;;
3333;SDS011;1679;50.392;8.008;2023-06-22T09:31:09;11.98;;;10.93;;
3333;SDS011;1679;50.392;8.008;2023-06-22T09:33:35;12.13;;;11.02;;
3333;SDS011;1679;50.392;8.008;2023-06-22T09:36:01;12.30;;;11.45;;
3333;SDS011;1679;50.392;8.008;2023-06-22T09:38:27;12.25;;;11.35;;
3333;SDS011;1679;50.392;8.008;2023-06-22T09:40:52;13.07;;;12.07;;
3333;SDS011;1679;50.392;8.008;2023-06-22T09:43:18;12.65;;;11.70;;
3333;SDS011;1679;50.392;8.008;2023-06-22T09:45:43;13.30;;;12.30;;
3333;SDS011;1679;50.392;8.008;2023-06-22T09:48:09;11.85;;;11.05;;
3333;SDS011;1679;50.392;8.008;2023-06-22T09:50:37;12.85;;;11.75;;
3333;SDS011;1679;50.392;8.008;2023-06-22T09:53:03;12.15;;;11.07;;
3333;SDS011;1679;50.392;8.008;2023-06-22T09:55:28;13.02;;;11.75;;
3333;SDS011;1679;50.392;8.008;2023-06-22T09:57:54;11.82;;;10.65;;
3333;SDS011;1679;50.392;8.008;2023-06-22T10:00:20;13.02;;;12.02;;
3333;SDS011;1679;50.392;8.008;2023-06-22T10:02:47;12.55;;;11.48;;
3333;SDS011;1679;50.392;8.008;2023-06-22T10:05:13;11.70;;;10.88;;
3333;SDS011;1679;50.392;8.008;2023-06-22T10:07:39;12.30;;;11.40;;
3333;SDS011;1679;50.392;8.008;2023-06-22T10:10:07;11.90;;;10.88;;
3333;SDS011;1679;50.392;8.008;2023-06-22T10:12:34;12.43;;;11.43;;
3333;SDS011;1679;50.392;8.008;2023-06-22T10:14:59;10.63;;;9.82;;
3333;SDS011;1679;50.392;8.008;2023-06-22T10:17:25;10.85;;;10.05;;
3333;SDS011;1679;50.392;8.008;2023-06-22T10:19:50;11.55;;;10.40;;
3333;SDS011;1679;50.392;8.008;2023-06-22T10:22:16;11.40;;;10.52;;
3333;SDS011;1679;50.392;8.008;2023-06-22T10:24:41;10.60;;;9.85;;
3333;SDS011;1679;50.392;8.008;2023-06-22T10:27:10;11.02;;;10.13;;
3333;SDS011;1679;50.392;8.008;2023-06-22T10:29:36;10.68;;;9.77;;
3333;SDS011;1679;50.392;8.008;2023-06-22T10:32:02;10.43;;;9.73;;
3333;SDS011;1679;50.392;8.008;2023-06-22T10:34:28;10.88;;;9.90;;
3333;SDS011;1679;50.392;8.008;2023-06-22T10:36:53;10.68;;;9.95;;
3333;SDS011;1679;50.392;8.008;2023-06-22T10:39:19;11.35;;;10.52;;
3333;SDS011;1679;50.392;8.008;2023-06-22T10:41:44;10.35;;;9.55;;
3333;SDS011;1679;50.392;8.008;2023-06-22T10:44:10;11.27;;;10.40;;
3333;SDS011;1679;50.392;8.008;2023-06-22T10:46:35;11.55;;;10.65;;
3333;SDS011;1679;50.392;8.008;2023-06-22T10:49:01;11.65;;;10.68;;
3333;SDS011;1679;50.392;8.008;2023-06-22T10:51:26;11.20;;;9.75;;
3333;SDS011;1679;50.392;8.008;2023-06-22T10:53:53;10.32;;;9.63;;
3333;SDS011;1679;50.392;8.008;2023-06-22T10:56:18;11.65;;;10.75;;
3333;SDS011;1679;50.392;8.008;2023-06-22T10:58:44;11.40;;;10.40;;
3333;SDS011;1679;50.392;8.008;2023-06-22T11:01:10;10.27;;;9.57;;
3333;SDS011;1679;50.392;8.008;2023-06-22T11:03:35;11.70;;;10.55;;
3333;SDS011;1679;50.392;8.008;2023-06-22T11:06:01;10.98;;;9.85;;
3333;SDS011;1679;50.392;8.008;2023-06-22T11:08:26;11.18;;;10.27;;
3333;SDS011;1679;50.392;8.008;2023-06-22T11:10:52;11.85;;;10.85;;
3333;SDS011;1679;50.392;8.008;2023-06-22T11:13:18;11.15;;;10.40;;
3333;SDS011;1679;50.392;8.008;2023-06-22T11:15:43;11.07;;;10.32;;
3333;SDS011;1679;50.392;8.008;2023-06-22T11:18:09;10.52;;;9.85;;
3333;SDS011;1679;50.392;8.008;2023-06-22T11:20:34;11.20;;;10.30;;
3333;SDS011;1679;50.392;8.008;2023-06-22T11:23:03;11.32;;;10.32;;
3333;SDS011;1679;50.392;8.008;2023-06-22T11:25:37;10.75;;;10.05;;
3333;SDS011;1679;50.392;8.008;2023-06-22T11:28:03;10.77;;;9.90;;
3333;SDS011;1679;50.392;8.008;2023-06-22T11:30:29;10.88;;;10.02;;
3333;SDS011;1679;50.392;8.008;2023-06-22T11:32:56;11.35;;;10.20;;
3333;SDS011;1679;50.392;8.008;2023-06-22T11:35:22;10.75;;;9.95;;
3333;SDS011;1679;50.392;8.008;2023-06-22T11:37:48;11.35;;;10.43;;
3333;SDS011;1679;50.392;8.008;2023-06-22T11:40:13;10.95;;;10.10;;
3333;SDS011;1679;50.392;8.008;2023-06-22T11:42:39;10.95;;;9.68;;
3333;SDS011;1679;50.392;8.008;2023-06-22T11:45:06;11.35;;;10.27;;
3333;SDS011;1679;50.392;8.008;2023-06-22T11:47:32;11.63;;;10.55;;
3333;SDS011;1679;50.392;8.008;2023-06-22T11:49:57;10.30;;;9.40;;
3333;SDS011;1679;50.392;8.008;2023-06-22T11:52:23;10.70;;;9.93;;
3333;SDS011;1679;50.392;8.008;2023-06-22T11:54:48;10.38;;;9.68;;
3333;SDS011;1679;50.392;8.008;2023-06-22T11:57:14;10.93;;;10.05;;
3333;SDS011;1679;50.392;8.008;2023-06-22T11:59:39;11.40;;;10.40;;
3333;SDS011;1679;50.392;8.008;2023-06-22T12:02:05;10.15;;;9.45;;
3333;SDS011;1679;50.392;8.008;2023-06-22T12:04:32;10.55;;;9.65;;
3333;SDS011;1679;50.392;8.008;2023-06-22T12:06:58;10.57;;;9.75;;
3333;SDS011;1679;50.392;8.008;2023-06-22T12:09:24;11.40;;;10.30;;
3333;SDS011;1679;50.392;8.008;2023-06-22T12:11:49;10.50;;;9.57;;
3333;SDS011;1679;50.392;8.008;2023-06-22T12:14:15;11.55;;;10.70;;
3333;SDS011;1679;50.392;8.008;2023-06-22T12:16:40;10.27;;;9.65;;
3333;SDS011;1679;50.392;8.008;2023-06-22T12:19:06;12.05;;;10.88;;
3333;SDS011;1679;50.392;8.008;2023-06-22T12:21:31;10.98;;;9.85;;
3333;SDS011;1679;50.392;8.008;2023-06-22T12:23:57;11.40;;;10.40;;
3333;SDS011;1679;50.392;8.008;2023-06-22T12:26:22;11.25;;;10.45;;
3333;SDS011;1679;50.392;8.008;2023-06-22T12:28:48;11.48;;;10.55;;
3333;SDS011;1679;50.392;8.008;2023-06-22T12:31:14;10.85;;;10.15;;
3333;SDS011;1679;50.392;8.008;2023-06-22T12:33:39;11.52;;;10.55;;
3333;SDS011;1679;50.392;8.008;2023-06-22T12:36:05;11.18;;;10.18;;
3333;SDS011;1679;50.392;8.008;2023-06-22T12:38:30;10.80;;;9.90;;
3333;SDS011;1679;50.392;8.008;2023-06-22T12:40:56;10.65;;;9.85;;
3333;SDS011;1679;50.392;8.008;2023-06-22T12:43:21;10.77;;;9.95;;
3333;SDS011;1679;50.392;8.008;2023-06-22T12:45:47;10.90;;;9.80;;
3333;SDS011;1679;50.392;8.008;2023-06-22T12:48:12;10.40;;;9.70;;
3333;SDS011;1679;50.392;8.008;2023-06-22T12:50:38;11.00;;;9.88;;
3333;SDS011;1679;50.392;8.008;2023-06-22T12:53:03;11.85;;;10.93;;
3333;SDS011;1679;50.392;8.008;2023-06-22T12:55:31;10.82;;;9.93;;
3333;SDS011;1679;50.392;8.008;2023-06-22T12:57:56;11.57;;;10.48;;
3333;SDS011;1679;50.392;8.008;2023-06-22T13:00:22;11.52;;;10.45;;
3333;SDS011;1679;50.392;8.008;2023-06-22T13:02:49;12.90;;;11.43;;
3333;SDS011;1679;50.392;8.008;2023-06-22T13:05:15;12.07;;;11.05;;
3333;SDS011;1679;50.392;8.008;2023-06-22T13:07:40;11.32;;;10.43;;
3333;SDS011;1679;50.392;8.008;2023-06-22T13:10:07;11.55;;;10.48;;
3333;SDS011;1679;50.392;8.008;2023-06-22T13:12:33;10.98;;;9.98;;
3333;SDS011;1679;50.392;8.008;2023-06-22T13:14:59;11.57;;;10.63;;
3333;SDS011;1679;50.392;8.008;2023-06-22T13:17:24;11.77;;;10.80;;
3333;SDS011;1679;50.392;8.008;2023-06-22T13:19:50;11.77;;;10.48;;
3333;SDS011;1679;50.392;8.008;2023-06-22T13:22:29;12.07;;;11.07;;
3333;SDS011;1679;50.392;8.008;2023-06-22T13:24:56;12.27;;;11.27;;
3333;SDS011;1679;50.392;8.008;2023-06-22T13:27:22;14.95;;;11.13;;
3333;SDS011;1679;50.392;8.008;2023-06-22T13:29:48;11.38;;;10.48;;
3333;SDS011;1679;50.392;8.008;2023-06-22T13:32:13;11.07;;;10.23;;
3333;SDS011;1679;50.392;8.008;2023-06-22T13:34:39;12.02;;;10.90;;
3333;SDS011;1679;50.392;8.008;2023-06-22T13:37:04;11.40;;;10.60;;
3333;SDS011;1679;50.392;8.008;2023-06-22T13:39:31;11.05;;;10.25;;
3333;SDS011;1679;50.392;8.008;2023-06-22T13:41:57;10.85;;;9.70;;
3333;SDS011;1679;50.392;8.008;2023-06-22T13:44:23;11.68;;;10.50;;
3333;SDS011;1679;50.392;8.008;2023-06-22T13:46:52;11.73;;;10.43;;
3333;SDS011;1679;50.392;8.008;2023-06-22T13:49:18;12.38;;;11.13;;
3333;SDS011;1679;50.392;8.008;2023-06-22T13:51:43;11.73;;;10.77;;
3333;SDS011;1679;50.392;8.008;2023-06-22T13:54:14;10.52;;;9.73;;
3333;SDS011;1679;50.392;8.008;2023-06-22T13:56:39;10.85;;;10.15;;
3333;SDS011;1679;50.392;8.008;2023-06-22T13:59:05;12.07;;;11.02;;
3333;SDS011;1679;50.392;8.008;2023-06-22T14:01:34;13.68;;;11.73;;
3333;SDS011;1679;50.392;8.008;2023-06-22T14:03:59;11.70;;;10.50;;
3333;SDS011;1679;50.392;8.008;2023-06-22T14:06:26;12.35;;;10.73;;
3333;SDS011;1679;50.392;8.008;2023-06-22T14:08:52;12.85;;;10.57;;
3333;SDS011;1679;50.392;8.008;2023-06-22T14:11:17;11.88;;;10.70;;
3333;SDS011;1679;50.392;8.008;2023-06-22T14:13:43;12.30;;;10.57;;
3333;SDS011;1679;50.392;8.008;2023-06-22T14:16:09;12.63;;;11.15;;
3333;SDS011;1679;50.392;8.008;2023-06-22T14:18:34;11.50;;;10.02;;
3333;SDS011;1679;50.392;8.008;2023-06-22T14:21:00;10.70;;;9.60;;
3333;SDS011;1679;50.392;8.008;2023-06-22T14:23:26;12.68;;;10.75;;
3333;SDS011;1679;50.392;8.008;2023-06-22T14:25:52;25.48;;;11.70;;
3333;SDS011;1679;50.392;8.008;2023-06-22T14:28:17;18.80;;;11.65;;
3333;SDS011;1679;50.392;8.008;2023-06-22T14:30:43;21.63;;;13.70;;
3333;SDS011;1679;50.392;8.008;2023-06-22T14:33:09;20.27;;;10.03;;
3333;SDS011;1679;50.392;8.008;2023-06-22T14:35:34;17.40;;;9.17;;
3333;SDS011;1679;50.392;8.008;2023-06-22T14:38:00;10.20;;;6.80;;
3333;SDS011;1679;50.392;8.008;2023-06-22T14:40:25;8.87;;;7.23;;
3333;SDS011;1679;50.392;8.008;2023-06-22T14:42:51;11.20;;;7.23;;
3333;SDS011;1679;50.392;8.008;2023-06-22T14:45:17;23.43;;;8.07;;
3333;SDS011;1679;50.392;8.008;2023-06-22T14:47:42;13.43;;;8.20;;
3333;SDS011;1679;50.392;8.008;2023-06-22T14:50:08;13.47;;;7.53;;
3333;SDS011;1679;50.392;8.008;2023-06-22T14:52:34;15.87;;;7.03;;
3333;SDS011;1679;50.392;8.008;2023-06-22T14:54:59;11.50;;;7.90;;